Time;durP1;ratioP1;P1;durP2;ratioP2;P2;SDS_P1;SDS_P2;PMS_P1;PMS_P2;Temp;Humidity;BMP_temperature;BMP_pressure;BME280_temperature;BME280_humidity;BME280_pressure;Samples;Min_cycle;Max_cycle;Signal;HPM_P1;HPM_P2
2022/03/06 00:00:48;;;;;;;6.40;3.15;;;3.10;72.30;;;3.30;nan;101124.38;4997677;28;20235;-64
2022/03/06 00:03:15;;;;;;;5.57;3.58;;;3.10;72.20;;;3.29;nan;101126.09;5006021;28;20206;-65
2022/03/06 00:05:42;;;;;;;4.18;2.95;;;3.10;72.10;;;3.30;nan;101125.19;5006149;28;20207;-65
2022/03/06 00:08:09;;;;;;;5.03;3.88;;;3.10;72.20;;;3.32;nan;101127.75;5007253;28;20757;-63
2022/03/06 00:10:37;;;;;;;4.70;3.15;;;3.10;72.50;;;3.27;nan;101124.47;5011392;28;20304;-66
2022/03/06 00:13:04;;;;;;;3.55;3.20;;;3.10;73.20;;;3.29;nan;101126.09;5008416;28;20233;-64
2022/03/06 00:15:31;;;;;;;8.00;3.50;;;3.10;73.30;;;3.29;nan;101120.94;4993594;28;20263;-64
2022/03/06 00:17:58;;;;;;;7.20;3.70;;;3.10;74.40;;;3.30;nan;101120.03;4992605;28;20214;-66
2022/03/06 00:20:26;;;;;;;4.40;3.15;;;3.10;74.30;;;3.25;nan;101115.94;5011755;28;20233;-64
2022/03/06 00:22:53;;;;;;;5.80;3.97;;;3.10;75.20;;;3.25;nan;101119.38;4991225;28;20688;-66
2022/03/06 00:25:20;;;;;;;8.38;4.70;;;3.00;76.00;;;3.27;nan;101116.72;5006548;28;20263;-65
2022/03/06 00:27:47;;;;;;;8.00;4.20;;;3.00;77.20;;;3.29;nan;101126.09;4992145;28;20234;-65
2022/03/06 00:30:14;;;;;;;4.07;3.72;;;3.10;77.40;;;3.33;nan;101124.25;4992959;28;20211;-64
2022/03/06 00:32:41;;;;;;;7.63;4.90;;;3.10;77.50;;;3.29;nan;101122.69;4998965;28;20226;-67
2022/03/06 00:35:09;;;;;;;5.22;4.47;;;3.10;77.80;;;3.31;nan;101123.47;5003011;28;20203;-64
2022/03/06 00:37:36;;;;;;;6.78;5.00;;;3.10;78.50;;;3.31;nan;101126.03;4997102;28;20203;-64
2022/03/06 00:40:06;;;;;;;6.53;4.05;;;3.10;78.80;;;3.33;nan;101124.25;4991897;28;20778;-65
2022/03/06 00:42:34;;;;;;;5.72;3.63;;;3.10;78.70;;;3.34;nan;101121.66;5002062;28;20234;-65
2022/03/06 00:45:01;;;;;;;6.72;3.58;;;3.10;78.30;;;3.40;nan;101131.75;5011719;28;20211;-64
2022/03/06 00:47:28;;;;;;;5.88;3.15;;;3.20;78.30;;;3.42;nan;101132.53;4990636;28;20198;-64
2022/03/06 00:49:55;;;;;;;5.00;3.58;;;3.20;78.60;;;3.42;nan;101124.78;4992928;28;20218;-66
2022/03/06 00:52:22;;;;;;;4.22;3.35;;;3.20;78.80;;;3.43;nan;101133.38;5007909;28;20722;-64
2022/03/06 00:54:49;;;;;;;5.45;3.85;;;3.20;79.20;;;3.37;nan;101126.69;5010780;28;20217;-66
2022/03/06 00:57:16;;;;;;;4.72;3.80;;;3.20;79.70;;;3.33;nan;101127.69;5007999;28;20195;-64
2022/03/06 00:59:43;;;;;;;5.35;3.45;;;3.10;80.20;;;3.33;nan;101127.69;5010425;28;20210;-67
2022/03/06 01:02:10;;;;;;;5.43;3.40;;;3.10;80.50;;;3.33;nan;101127.69;5010636;28;20227;-64
2022/03/06 01:04:39;;;;;;;7.57;4.70;;;3.10;81.10;;;3.35;nan;101133.63;4983331;28;20218;-66
2022/03/06 01:07:06;;;;;;;4.55;4.03;;;3.10;81.10;;;3.30;nan;101132.94;4999065;28;20201;-65
2022/03/06 01:09:33;;;;;;;4.30;3.33;;;3.10;80.50;;;3.34;nan;101131.97;5010960;28;20269;-66
2022/03/06 01:12:00;;;;;;;3.90;3.20;;;3.20;80.40;;;3.31;nan;101126.91;5010555;28;20253;-64
2022/03/06 01:14:27;;;;;;;2.90;2.70;;;3.10;80.30;;;3.36;nan;101131.91;5011351;28;20612;-64
2022/03/06 01:16:54;;;;;;;4.35;3.33;;;3.10;79.70;;;3.34;nan;101134.53;5012031;28;20213;-64
2022/03/06 01:19:21;;;;;;;4.65;3.20;;;3.10;80.00;;;3.32;nan;101130.31;5011404;28;20231;-66
2022/03/06 01:21:48;;;;;;;5.80;3.63;;;3.10;80.60;;;3.33;nan;101132.84;5008811;28;20215;-64
2022/03/06 01:24:17;;;;;;;5.47;3.92;;;3.10;81.20;;;3.33;nan;101127.69;4995028;28;20781;-64
2022/03/06 01:26:44;;;;;;;3.55;3.05;;;3.10;81.30;;;3.32;nan;101128.59;5009041;28;20284;-67
2022/03/06 01:29:11;;;;;;;1.40;1.30;;;3.10;80.90;;;3.33;nan;101129.41;5010274;28;20229;-66
2022/03/06 01:31:38;;;;;;;4.32;3.35;;;3.10;79.70;;;3.37;nan;101124.09;5010896;28;20304;-65
2022/03/06 01:34:05;;;;;;;5.10;3.40;;;3.20;79.40;;;3.34;nan;101124.22;5006012;28;20230;-65
2022/03/06 01:36:32;;;;;;;3.33;3.03;;;3.20;79.70;;;3.23;nan;101120.31;5004930;28;20210;-64
2022/03/06 01:38:59;;;;;;;3.50;3.13;;;3.10;80.50;;;3.27;nan;101119.31;4990099;28;20218;-66
2022/03/06 01:41:27;;;;;;;5.88;3.50;;;3.10;81.30;;;3.29;nan;101127.84;5008356;22;20306;-66
2022/03/06 01:43:54;;;;;;;3.22;2.92;;;3.10;81.60;;;3.24;nan;101124.59;4991890;28;20595;-66
2022/03/06 01:46:21;;;;;;;3.90;3.50;;;3.10;81.60;;;3.24;nan;101117.69;5027315;28;20287;-66
2022/03/06 01:48:48;;;;;;;7.35;3.85;;;3.10;81.80;;;3.19;nan;101127.31;5022507;28;20206;-65
2022/03/06 01:51:15;;;;;;;3.40;3.05;;;3.00;82.30;;;3.14;nan;101122.31;5022554;28;20674;-66
2022/03/06 01:53:42;;;;;;;3.95;3.17;;;3.00;82.80;;;3.24;nan;101122.00;5050913;28;20209;-65
2022/03/06 01:56:12;;;;;;;5.47;3.42;;;3.10;82.60;;;3.25;nan;101123.69;5033650;28;20255;-65
2022/03/06 01:58:40;;;;;;;4.93;2.95;;;3.00;82.40;;;3.24;nan;101122.00;5030026;28;20206;-66
2022/03/06 02:01:07;;;;;;;5.93;3.97;;;3.00;82.30;;;3.16;nan;101117.09;5014101;28;20218;-66
2022/03/06 02:03:35;;;;;;;9.95;3.92;;;3.00;82.90;;;3.14;nan;101119.75;5023619;28;20218;-65
2022/03/06 02:06:05;;;;;;;7.35;4.05;;;3.00;83.50;;;3.13;nan;101119.81;5043580;28;20204;-65
2022/03/06 02:08:32;;;;;;;4.70;2.60;;;3.00;83.10;;;3.14;nan;101119.75;5048564;28;20228;-65
2022/03/06 02:11:00;;;;;;;5.13;4.10;;;3.00;83.10;;;3.09;nan;101110.47;5041411;28;20205;-66
2022/03/06 02:13:27;;;;;;;2.67;2.25;;;3.00;83.70;;;3.05;nan;101117.47;5030225;28;20229;-66
2022/03/06 02:15:55;;;;;;;8.02;3.40;;;2.90;83.20;;;3.05;nan;101119.19;5032609;28;20574;-66
2022/03/06 02:18:22;;;;;;;3.20;2.65;;;2.90;83.00;;;2.90;nan;101117.13;5028883;28;20210;-66
2022/03/06 02:20:49;;;;;;;4.75;2.72;;;2.80;82.80;;;2.89;nan;101115.44;5011694;28;20295;-67
2022/03/06 02:23:16;;;;;;;4.18;2.05;;;2.80;83.30;;;2.88;nan;101109.44;5025747;28;20225;-66
2022/03/06 02:25:43;;;;;;;5.18;3.40;;;2.70;83.10;;;2.86;nan;101105.22;5028332;28;20194;-66
2022/03/06 02:28:11;;;;;;;3.63;3.08;;;2.70;83.20;;;2.79;nan;101114.06;5023010;28;20201;-67
2022/03/06 02:30:43;;;;;;;6.78;3.40;;;2.70;83.50;;;2.69;nan;101105.78;5025766;28;20202;-67
2022/03/06 02:33:13;;;;;;;3.10;2.80;;;2.50;84.00;;;2.68;nan;101111.84;5019525;28;20236;-67
2022/03/06 02:35:40;;;;;;;5.05;3.67;;;2.50;84.30;;;2.66;nan;101113.59;5030440;28;20207;-67
2022/03/06 02:38:08;;;;;;;8.43;3.63;;;2.50;84.80;;;2.58;nan;101113.00;5032834;28;20206;-66
2022/03/06 02:40:41;;;;;;;5.72;3.72;;;2.50;85.20;;;2.63;nan;101112.84;5044256;28;20598;-67
2022/03/06 02:43:11;;;;;;;5.10;3.80;;;2.50;85.30;;;2.57;nan;101110.47;5012053;28;20234;-66
2022/03/06 02:45:40;;;;;;;4.57;3.30;;;2.40;85.80;;;2.50;nan;101101.25;5015112;28;20566;-67
2022/03/06 02:48:08;;;;;;;6.80;3.75;;;2.30;85.90;;;2.48;nan;101103.88;5033374;28;20210;-67
2022/03/06 02:50:38;;;;;;;7.45;3.60;;;2.30;85.70;;;2.52;nan;101109.78;5034600;28;20205;-66
2022/03/06 02:53:08;;;;;;;6.63;3.40;;;2.40;86.00;;;2.48;nan;101106.47;5042509;28;20716;-66
2022/03/06 02:55:36;;;;;;;4.22;2.75;;;2.30;85.80;;;2.54;nan;101118.28;5034329;28;20205;-67
2022/03/06 02:58:03;;;;;;;6.93;3.20;;;2.40;85.90;;;2.57;nan;101108.75;5035035;28;20206;-66
2022/03/06 03:00:31;;;;;;;5.10;3.17;;;2.50;86.10;;;2.55;nan;101115.69;5049723;28;20221;-66
2022/03/06 03:02:58;;;;;;;4.57;2.90;;;2.40;86.00;;;2.56;nan;101116.50;5018263;28;20230;-67
2022/03/06 03:05:26;;;;;;;6.60;4.05;;;2.40;85.80;;;2.49;nan;101115.03;5015055;28;20586;-66
2022/03/06 03:07:53;;;;;;;6.22;3.80;;;2.40;86.10;;;2.48;nan;101106.47;5048234;28;20724;-66
2022/03/06 03:10:23;;;;;;;6.57;3.60;;;2.40;86.60;;;2.50;nan;101111.56;5051855;28;20205;-66
2022/03/06 03:12:51;;;;;;;7.68;3.88;;;2.40;86.80;;;2.43;nan;101103.19;5034648;28;20225;-66
2022/03/06 03:15:19;;;;;;;3.63;2.58;;;2.30;87.40;;;2.44;nan;101110.03;5035711;28;20205;-66
2022/03/06 03:17:46;;;;;;;4.93;3.42;;;2.30;88.50;;;2.47;nan;101107.34;5036244;28;20584;-66
2022/03/06 03:20:15;;;;;;;6.70;2.95;;;2.30;88.40;;;2.45;nan;101110.88;5036034;28;20609;-66
2022/03/06 03:22:42;;;;;;;3.65;2.70;;;2.30;89.40;;;2.51;nan;101113.25;5027384;28;20225;-66
2022/03/06 03:25:10;;;;;;;3.05;2.60;;;2.30;89.20;;;2.56;nan;101112.22;5031834;28;20209;-66
2022/03/06 03:27:38;;;;;;;7.00;2.90;;;2.40;88.80;;;2.61;nan;101115.50;5043372;28;20581;-66
2022/03/06 03:30:08;;;;;;;3.17;2.63;;;2.40;87.40;;;2.55;nan;101115.69;5033639;28;20280;-66
2022/03/06 03:32:35;;;;;;;3.50;2.63;;;2.40;87.10;;;2.53;nan;101114.91;5051252;28;20225;-66
2022/03/06 03:35:03;;;;;;;4.47;3.03;;;2.40;87.30;;;2.55;nan;101120.84;5034938;28;20205;-66
2022/03/06 03:37:30;;;;;;;2.97;2.28;;;2.40;87.50;;;2.53;nan;101122.63;5034696;28;20216;-66
2022/03/06 03:39:57;;;;;;;4.78;2.80;;;2.40;88.00;;;2.55;nan;101131.16;5030865;28;20226;-66
2022/03/06 03:42:24;;;;;;;4.30;3.35;;;2.40;88.70;;;2.53;nan;101126.94;5032918;28;20234;-66
2022/03/06 03:44:54;;;;;;;5.63;3.10;;;2.40;89.60;;;2.50;nan;101121.84;5016392;28;20206;-66
2022/03/06 03:47:21;;;;;;;6.88;4.05;;;2.40;89.20;;;2.46;nan;101126.28;5033681;28;20252;-67
2022/03/06 03:49:48;;;;;;;2.70;2.50;;;2.30;89.40;;;2.49;nan;101128.75;5044131;28;20212;-67
2022/03/06 03:52:15;;;;;;;7.55;3.70;;;2.30;89.60;;;2.49;nan;101131.34;5052431;28;20217;-68
2022/03/06 03:54:42;;;;;;;5.05;3.28;;;2.30;90.00;;;2.57;nan;101134.50;5052293;28;20208;-67
2022/03/06 03:57:09;;;;;;;2.53;2.30;;;2.40;90.10;;;2.59;nan;101148.19;5053262;28;20201;-67
2022/03/06 03:59:36;;;;;;;2.63;2.40;;;2.40;89.90;;;2.60;nan;101144.72;5033597;28;20204;-64
2022/03/06 04:02:03;;;;;;;6.40;2.97;;;2.50;89.70;;;2.61;nan;101141.25;5051335;28;20228;-64
2022/03/06 04:04:30;;;;;;;3.40;3.00;;;2.50;89.50;;;2.62;nan;101144.69;5024374;28;20359;-67
2022/03/06 04:06:59;;;;;;;5.55;3.72;;;2.50;89.60;;;2.63;nan;101143.78;5031247;28;20209;-64
2022/03/06 04:09:26;;;;;;;3.33;2.97;;;2.50;90.00;;;2.58;nan;101150.81;5013693;28;20497;-65
2022/03/06 04:11:53;;;;;;;4.47;2.90;;;2.40;90.30;;;2.59;nan;101145.63;5046819;28;20221;-65
2022/03/06 04:14:20;;;;;;;4.22;3.28;;;2.40;90.60;;;2.57;nan;101149.97;5017474;28;20741;-64
2022/03/06 04:16:47;;;;;;;5.97;3.63;;;2.40;90.60;;;2.52;nan;101154.41;5021572;28;20216;-65
2022/03/06 04:19:14;;;;;;;4.40;2.92;;;2.40;90.80;;;2.50;nan;101157.91;5013939;28;20708;-64
2022/03/06 04:21:41;;;;;;;4.10;3.20;;;2.30;90.90;;;2.55;nan;101154.31;5039101;28;20233;-67
2022/03/06 04:24:09;;;;;;;2.80;2.60;;;2.40;91.00;;;2.67;nan;101171.13;5033174;28;20205;-64
2022/03/06 04:26:36;;;;;;;5.82;3.20;;;2.50;91.20;;;2.62;nan;101168.69;5050154;28;20440;-64
2022/03/06 04:29:04;;;;;;;5.15;3.70;;;2.50;91.10;;;2.67;nan;101174.56;5032492;28;20202;-64
2022/03/06 04:31:32;;;;;;;3.95;3.15;;;2.60;91.00;;;2.62;nan;101173.03;5031064;28;20222;-64
2022/03/06 04:34:00;;;;;;;5.47;3.90;;;2.50;91.60;;;2.52;nan;101172.44;5030506;28;20221;-64
2022/03/06 04:36:27;;;;;;;6.95;3.30;;;2.50;92.40;;;2.59;nan;101173.94;5034472;28;20221;-65
2022/03/06 04:38:55;;;;;;;4.97;3.47;;;2.50;92.50;;;2.48;nan;101173.44;5034582;28;20591;-64
2022/03/06 04:41:22;;;;;;;4.53;3.60;;;2.40;92.70;;;2.52;nan;101175.03;5052114;28;20229;-64
2022/03/06 04:43:50;;;;;;;6.88;3.95;;;2.50;93.00;;;2.57;nan;101174.88;5036122;28;20263;-64
2022/03/06 04:46:18;;;;;;;6.15;4.50;;;2.50;93.00;;;2.49;nan;101177.72;5050621;28;20196;-64
2022/03/06 04:48:45;;;;;;;3.53;3.15;;;2.40;93.40;;;2.55;nan;101177.50;5049428;28;20216;-65
2022/03/06 04:51:12;;;;;;;5.57;4.00;;;2.50;93.00;;;2.58;nan;101186.88;5040786;28;20209;-65
2022/03/06 04:53:39;;;;;;;6.35;3.75;;;2.50;93.30;;;2.56;nan;101184.34;5039586;28;20588;-65
2022/03/06 04:56:07;;;;;;;5.15;3.40;;;2.50;93.20;;;2.61;nan;101192.78;5033078;28;20205;-68
2022/03/06 04:58:33;;;;;;;6.97;3.92;;;2.50;93.30;;;2.67;nan;101186.59;5025360;28;20206;-65
2022/03/06 05:01:02;;;;;;;6.60;3.83;;;2.60;93.30;;;2.56;nan;101192.06;5029495;28;20625;-65
2022/03/06 05:03:29;;;;;;;9.38;3.80;;;2.50;93.60;;;2.56;nan;101194.63;5022922;28;20233;-64
2022/03/06 05:05:57;;;;;;;10.18;4.15;;;2.50;94.00;;;2.58;nan;101194.63;5013122;28;20576;-65
2022/03/06 05:08:26;;;;;;;6.85;3.55;;;2.50;94.10;;;2.53;nan;101193.91;5039784;28;20201;-64
2022/03/06 05:10:55;;;;;;;6.28;3.67;;;2.40;94.40;;;2.54;nan;101188.69;5027788;28;20198;-64
2022/03/06 05:13:23;;;;;;;6.03;3.20;;;2.40;94.70;;;2.54;nan;101193.84;5012948;28;20226;-65
2022/03/06 05:15:51;;;;;;;4.47;3.55;;;2.40;95.00;;;2.53;nan;101199.91;5012737;28;20206;-65
2022/03/06 05:18:18;;;;;;;4.93;3.05;;;2.40;95.20;;;2.55;nan;101190.41;5019366;28;20205;-65
2022/03/06 05:20:45;;;;;;;3.55;2.00;;;2.40;95.40;;;2.55;nan;101194.69;5030867;28;20258;-65
2022/03/06 05:23:12;;;;;;;6.80;3.75;;;2.50;95.90;;;2.60;nan;101192.84;5026216;28;20608;-68
2022/03/06 05:25:42;;;;;;;4.45;3.45;;;2.40;95.70;;;2.64;nan;101197.00;5032984;28;20220;-65
2022/03/06 05:28:09;;;;;;;4.50;3.00;;;2.50;96.00;;;2.64;nan;101200.41;5049709;28;20212;-64
2022/03/06 05:30:36;;;;;;;5.60;3.42;;;2.50;96.20;;;2.57;nan;101200.63;5051734;28;20205;-65
2022/03/06 05:33:04;;;;;;;7.53;4.20;;;2.40;96.70;;;2.54;nan;101201.56;5025258;28;20257;-65
2022/03/06 05:35:31;;;;;;;6.80;2.85;;;2.40;97.00;;;2.49;nan;101205.19;5046349;28;20610;-64
2022/03/06 05:37:58;;;;;;;4.70;3.47;;;2.40;97.50;;;2.52;nan;101207.66;5032373;28;20581;-64
2022/03/06 05:40:25;;;;;;;6.20;3.85;;;2.30;97.70;;;2.37;nan;101211.53;5030184;28;20226;-64
2022/03/06 05:42:52;;;;;;;8.13;4.57;;;2.20;98.10;;;2.37;nan;101211.53;5029970;28;20237;-67
2022/03/06 05:45:19;;;;;;;7.25;4.25;;;2.20;98.20;;;2.32;nan;101210.84;5029552;28;20198;-67
2022/03/06 05:47:46;;;;;;;4.63;3.45;;;2.10;98.50;;;2.26;nan;101219.56;5012752;28;20205;-67
2022/03/06 05:50:13;;;;;;;5.45;3.33;;;2.10;98.60;;;2.24;nan;101218.75;5045296;28;20585;-64
2022/03/06 05:52:40;;;;;;;5.20;3.92;;;2.10;98.80;;;2.27;nan;101221.25;5046333;28;20217;-65
2022/03/06 05:55:08;;;;;;;4.80;3.75;;;2.10;98.80;;;2.26;nan;101218.72;5041634;28;20688;-64
2022/03/06 05:57:36;;;;;;;5.70;3.78;;;2.10;99.10;;;2.33;nan;101215.09;5013865;28;20273;-65
2022/03/06 06:00:08;;;;;;;9.05;4.43;;;2.20;99.00;;;2.27;nan;101223.00;5031599;28;20202;-64
2022/03/06 06:02:36;;;;;;;7.03;3.97;;;2.10;99.30;;;2.24;nan;101218.75;5033719;28;20229;-65
2022/03/06 06:05:05;;;;;;;6.00;4.18;;;2.10;99.60;;;2.27;nan;101223.00;5047831;28;20202;-64
2022/03/06 06:07:33;;;;;;;5.97;4.50;;;2.20;99.50;;;2.28;nan;101219.50;5027492;28;20209;-67
2022/03/06 06:10:01;;;;;;;3.65;3.13;;;2.20;99.40;;;2.28;nan;101222.09;5028242;28;20264;-67
2022/03/06 06:12:28;;;;;;;3.08;2.80;;;2.20;99.70;;;2.37;nan;101224.41;5026975;28;20229;-67
2022/03/06 06:14:55;;;;;;;6.32;4.63;;;2.30;99.60;;;2.35;nan;101221.03;5045497;28;20205;-67
2022/03/06 06:17:22;;;;;;;7.22;4.70;;;2.20;99.60;;;2.24;nan;101229.06;5032999;28;20217;-67
2022/03/06 06:19:49;;;;;;;7.10;4.20;;;2.20;99.90;;;2.26;nan;101234.16;4995979;28;20214;-67
2022/03/06 06:22:16;;;;;;;7.90;4.30;;;2.20;99.90;;;2.29;nan;101236.66;5021658;28;20230;-67
2022/03/06 06:24:43;;;;;;;4.38;3.20;;;2.20;99.90;;;2.28;nan;101240.09;5050277;28;20205;-67
2022/03/06 06:27:10;;;;;;;6.75;3.70;;;2.20;99.90;;;2.34;nan;101240.78;5021748;28;20209;-66
2022/03/06 06:29:37;;;;;;;8.80;5.97;;;2.30;99.90;;;2.47;nan;101238.69;5053125;28;20213;-67
2022/03/06 06:32:05;;;;;;;10.43;4.78;;;2.40;99.90;;;2.45;nan;101244.81;5044828;28;20214;-65
2022/03/06 06:34:32;;;;;;;7.68;4.10;;;2.40;99.90;;;2.42;nan;101248.31;5041053;28;20205;-68
2022/03/06 06:37:00;;;;;;;7.15;5.45;;;2.40;99.90;;;2.48;nan;101244.69;5040833;28;20209;-67
2022/03/06 06:39:27;;;;;;;6.90;4.50;;;2.50;99.90;;;2.57;nan;101250.44;5024199;28;20217;-63
2022/03/06 06:41:53;;;;;;;6.03;4.30;;;2.60;99.90;;;2.51;nan;101247.19;5022244;28;20271;-68
2022/03/06 06:44:21;;;;;;;8.00;4.45;;;2.50;99.90;;;2.48;nan;101253.28;5019581;28;20198;-68
2022/03/06 06:46:48;;;;;;;5.57;4.45;;;2.50;99.90;;;2.47;nan;101267.03;5020953;28;20191;-67
2022/03/06 06:49:15;;;;;;;7.07;4.07;;;2.40;99.90;;;2.44;nan;101259.41;5028569;28;20198;-67
2022/03/06 06:51:42;;;;;;;5.30;4.20;;;2.40;99.90;;;2.47;nan;101261.88;5049475;28;20222;-67
2022/03/06 06:54:09;;;;;;;6.07;4.15;;;2.40;99.90;;;2.47;nan;101273.94;5031523;28;20202;-67
2022/03/06 06:56:36;;;;;;;8.98;4.85;;;2.50;99.90;;;2.51;nan;101265.22;5015160;28;20260;-67
2022/03/06 06:59:03;;;;;;;5.93;4.32;;;2.50;99.90;;;2.54;nan;101265.13;5048621;28;20201;-67
2022/03/06 07:01:30;;;;;;;5.60;3.97;;;2.50;99.90;;;2.57;nan;101259.91;5052305;28;20217;-67
2022/03/06 07:03:57;;;;;;;7.30;5.32;;;2.60;99.90;;;2.66;nan;101273.34;5051280;28;20278;-67
2022/03/06 07:06:24;;;;;;;6.68;4.55;;;2.70;99.90;;;2.68;nan;101268.16;5035467;28;20208;-67
2022/03/06 07:08:51;;;;;;;6.78;4.80;;;2.70;99.90;;;2.71;nan;101270.63;5045511;28;20239;-67
2022/03/06 07:11:21;;;;;;;4.80;3.70;;;2.80;99.90;;;2.80;nan;101273.78;5049497;28;20680;-67
2022/03/06 07:13:48;;;;;;;6.38;4.28;;;2.80;99.90;;;2.84;nan;101277.09;5052762;28;20228;-67
2022/03/06 07:16:15;;;;;;;4.65;4.25;;;2.80;99.90;;;2.79;nan;101277.25;5052034;28;20200;-67
2022/03/06 07:18:42;;;;;;;6.32;4.43;;;2.80;99.90;;;2.92;nan;101278.56;5052210;28;20705;-67
2022/03/06 07:21:10;;;;;;;9.77;5.63;;;2.90;99.90;;;2.94;nan;101275.94;5051404;28;20221;-67
2022/03/06 07:23:37;;;;;;;7.43;5.40;;;3.00;99.90;;;2.93;nan;101277.69;5029136;28;20206;-67
2022/03/06 07:26:04;;;;;;;7.07;4.90;;;3.00;99.90;;;2.95;nan;101283.63;5032186;28;20206;-67
2022/03/06 07:28:31;;;;;;;7.72;4.88;;;3.10;99.90;;;3.08;nan;101278.94;5048080;28;20220;-67
2022/03/06 07:30:58;;;;;;;6.00;4.72;;;3.10;99.90;;;3.11;nan;101281.41;5028319;28;20766;-67
2022/03/06 07:33:25;;;;;;;4.70;4.13;;;3.20;99.90;;;3.17;nan;101280.41;5041059;28;20232;-67
2022/03/06 07:35:52;;;;;;;4.13;2.90;;;3.30;99.90;;;3.20;nan;101285.44;5013167;28;20221;-67
2022/03/06 07:38:19;;;;;;;6.85;4.70;;;3.20;99.90;;;3.30;nan;101287.69;5030900;28;20233;-67
2022/03/06 07:40:46;;;;;;;4.63;4.20;;;3.40;99.90;;;3.43;nan;101290.75;5052092;28;20205;-67
2022/03/06 07:43:13;;;;;;;6.88;4.38;;;3.50;99.90;;;3.60;nan;101289.28;5057417;28;20233;-64
2022/03/06 07:45:40;;;;;;;5.38;4.18;;;3.70;99.90;;;3.72;nan;101283.72;5033208;28;20201;-67
2022/03/06 07:48:07;;;;;;;6.55;4.55;;;3.80;99.90;;;3.88;nan;101294.38;5033029;28;20205;-67
2022/03/06 07:50:34;;;;;;;6.22;3.35;;;4.00;99.50;;;4.06;nan;101296.34;5014559;28;20202;-67
2022/03/06 07:53:01;;;;;;;6.20;4.00;;;4.10;99.20;;;4.22;nan;101294.03;5039683;28;20728;-67
2022/03/06 07:55:28;;;;;;;6.72;4.25;;;4.30;98.80;;;4.42;nan;101289.88;5031314;28;20220;-67
2022/03/06 07:57:55;;;;;;;5.93;4.20;;;4.50;98.10;;;4.55;nan;101285.94;5030132;28;20688;-65
2022/03/06 08:00:22;;;;;;;8.65;4.90;;;4.70;97.40;;;4.71;nan;101292.22;5028623;28;20217;-64
2022/03/06 08:02:49;;;;;;;5.38;3.90;;;4.90;96.90;;;4.92;nan;101294.91;5039725;28;20233;-65
2022/03/06 08:05:16;;;;;;;7.38;5.60;;;5.10;96.30;;;5.12;nan;101294.97;5036424;28;20684;-64
2022/03/06 08:07:43;;;;;;;7.47;5.07;;;5.30;95.50;;;5.24;nan;101297.06;5031159;28;20673;-65
2022/03/06 08:10:10;;;;;;;7.97;4.68;;;5.40;95.30;;;5.43;nan;101304.03;5051401;28;20193;-65
2022/03/06 08:12:37;;;;;;;8.80;5.22;;;5.60;94.90;;;5.73;nan;101306.31;5044054;28;20225;-65
2022/03/06 08:15:05;;;;;;;5.93;4.10;;;6.00;93.90;;;6.12;nan;101295.13;5035707;28;20201;-65
2022/03/06 08:17:32;;;;;;;9.50;4.60;;;6.40;93.00;;;6.70;nan;101297.72;5057516;28;20637;-65
2022/03/06 08:19:59;;;;;;;7.53;4.78;;;7.00;91.60;;;8.14;nan;101294.13;5061167;28;20533;-66
2022/03/06 08:22:26;;;;;;;7.63;4.90;;;8.60;88.30;;;10.59;nan;101304.50;5018816;28;20225;-65
2022/03/06 08:24:54;;;;;;;9.00;5.83;;;11.40;74.00;;;12.73;nan;101300.69;5032330;28;20206;-66
2022/03/06 08:27:21;;;;;;;9.27;6.23;;;13.80;60.40;;;14.11;nan;101304.47;5049750;28;20998;-65
2022/03/06 08:29:49;;;;;;;11.03;6.33;;;15.20;55.50;;;15.34;nan;101299.03;5029921;28;20616;-65
2022/03/06 08:32:16;;;;;;;7.20;4.40;;;16.50;51.40;;;15.10;nan;101305.44;5048206;28;20666;-65
2022/03/06 08:34:44;;;;;;;8.60;5.57;;;16.70;46.60;;;15.66;nan;101314.00;5067594;28;20627;-65
2022/03/06 08:37:11;;;;;;;7.57;5.77;;;16.90;46.50;;;15.57;nan;101317.41;5045500;28;20632;-65
2022/03/06 08:39:38;;;;;;;10.03;6.20;;;17.30;44.40;;;15.43;nan;101316.75;5059725;28;21229;-67
2022/03/06 08:42:05;;;;;;;9.10;6.10;;;17.00;43.40;;;14.86;nan;101313.50;5021782;28;20675;-65
2022/03/06 08:44:32;;;;;;;9.33;6.00;;;16.50;43.70;;;14.61;nan;101326.84;5037245;28;20631;-65
2022/03/06 08:46:59;;;;;;;7.20;5.70;;;16.00;43.40;;;15.08;nan;101316.06;5039080;28;21042;-65
2022/03/06 08:49:26;;;;;;;7.10;5.70;;;16.40;43.90;;;14.39;nan;101316.34;5024844;28;20631;-65
2022/03/06 08:51:54;;;;;;;8.53;6.40;;;15.80;43.80;;;14.12;nan;101318.44;5033262;28;20660;-65
2022/03/06 08:54:21;;;;;;;7.10;5.40;;;15.50;44.10;;;14.40;nan;101323.25;5048491;28;20632;-65
2022/03/06 08:56:48;;;;;;;7.17;6.00;;;15.60;44.50;;;14.63;nan;101319.69;5052959;28;21025;-65
2022/03/06 08:59:15;;;;;;;9.93;6.97;;;16.00;43.50;;;14.25;nan;101319.16;5032456;28;20631;-65
2022/03/06 09:01:42;;;;;;;10.03;6.10;;;15.50;44.10;;;13.92;nan;101319.94;5041199;28;20683;-65
2022/03/06 09:04:09;;;;;;;7.70;5.77;;;15.20;44.40;;;14.61;nan;101321.59;5031203;28;20673;-65
2022/03/06 09:06:36;;;;;;;8.93;5.83;;;15.70;44.30;;;15.17;nan;101317.13;5035673;28;20639;-65
2022/03/06 09:09:03;;;;;;;9.30;7.20;;;16.40;43.50;;;16.36;nan;101311.56;5057503;28;20633;-65
2022/03/06 09:11:31;;;;;;;8.53;6.13;;;17.80;42.00;;;18.53;nan;101324.34;5022638;28;20671;-65
2022/03/06 09:13:59;;;;;;;9.33;6.10;;;20.50;39.10;;;19.75;nan;101324.75;5030209;28;20631;-65
2022/03/06 09:16:26;;;;;;;6.90;4.80;;;22.30;35.10;;;19.78;nan;101321.78;5040260;28;21190;-65
2022/03/06 09:18:53;;;;;;;8.60;6.40;;;23.10;33.30;;;22.52;nan;101324.47;5052684;28;20635;-65
2022/03/06 09:21:20;;;;;;;8.17;6.57;;;25.60;32.00;;;23.56;nan;101316.00;5054485;28;21280;-65
2022/03/06 09:23:47;;;;;;;7.80;6.60;;;26.90;30.60;;;25.18;nan;101320.47;5022366;28;20639;-65
2022/03/06 09:26:14;;;;;;;8.87;6.97;;;28.40;29.80;;;26.86;nan;101329.28;5038563;28;20628;-65
2022/03/06 09:28:42;;;;;;;7.03;6.10;;;30.20;28.80;;;25.26;nan;101329.19;5019798;28;20639;-65
2022/03/06 09:31:09;;;;;;;7.37;6.63;;;28.90;28.10;;;26.39;nan;101318.50;5021867;28;21168;-65
2022/03/06 09:33:36;;;;;;;8.23;5.93;;;30.10;27.50;;;25.47;nan;101327.63;5041480;28;20631;-65
2022/03/06 09:36:03;;;;;;;8.50;4.40;;;30.20;26.30;;;22.04;nan;101314.75;5019255;28;20632;-65
2022/03/06 09:38:31;;;;;;;7.80;6.70;;;27.70;26.60;;;21.84;nan;101316.94;5008946;28;21022;-65
2022/03/06 09:41:04;;;;;;;7.80;6.50;;;27.80;26.60;;;23.83;nan;101314.59;5040482;28;20624;-66
2022/03/06 09:43:33;;;;;;;5.60;4.93;;;27.00;27.00;;;25.14;nan;101317.38;5039755;28;20676;-65
2022/03/06 09:46:08;;;;;;;6.60;3.80;;;28.70;26.40;;;20.12;nan;101314.75;5029867;28;20638;-65
2022/03/06 09:48:36;;;;;;;4.63;3.80;;;24.10;26.50;;;19.46;nan;101324.16;5035014;28;21171;-65
2022/03/06 09:51:04;;;;;;;6.20;1.80;;;23.10;27.50;;;15.85;nan;101312.34;5017991;28;20631;-65
2022/03/06 09:53:32;;;;;;;4.37;2.90;;;18.70;29.20;;;15.74;nan;101322.13;5021380;28;20681;-65
2022/03/06 09:55:59;;;;;;;6.43;4.17;;;18.10;29.80;;;19.57;nan;101307.22;5027731;28;20631;-64
2022/03/06 09:58:27;;;;;;;3.60;3.17;;;21.50;28.90;;;17.42;nan;101300.41;5027936;28;20623;-66
2022/03/06 10:00:54;;;;;;;6.40;5.80;;;22.60;27.40;;;17.67;nan;101307.81;5047187;28;20621;-65
2022/03/06 10:03:23;;;;;;;5.60;4.30;;;21.70;28.70;;;19.47;nan;101317.84;5044062;28;20671;-65
2022/03/06 10:05:51;;;;;;;8.03;5.90;;;23.30;27.50;;;17.79;nan;101311.97;5031788;28;20680;-65
2022/03/06 10:08:25;;;;;;;7.83;4.27;;;22.20;28.00;;;18.84;nan;101316.97;5037173;28;20619;-65
2022/03/06 10:10:58;;;;;;;10.20;7.53;;;21.20;28.30;;;19.97;nan;101294.28;5054660;28;20630;-65
2022/03/06 10:13:51;;;;;;;7.00;5.73;;;22.90;28.10;;;22.09;nan;101309.75;5040115;28;21014;-65
2022/03/06 10:16:20;;;;;;;6.57;5.90;;;25.50;27.00;;;22.96;nan;101301.69;5050978;28;20648;-66
2022/03/06 10:18:54;;;;;;;7.63;6.90;;;26.90;26.60;;;25.01;nan;101311.03;5053368;28;20611;-65
2022/03/06 10:21:36;;;;;;;7.30;6.60;;;29.00;26.30;;;25.41;nan;101307.78;5017908;28;20628;-65
2022/03/06 10:24:08;;;;;;;7.30;6.70;;;29.40;26.00;;;23.65;nan;101311.44;5043609;28;21191;-65
2022/03/06 10:26:37;;;;;;;7.97;6.37;;;27.90;25.80;;;21.32;nan;101297.75;5036544;28;21144;-66
2022/03/06 10:29:11;;;;;;;7.07;6.37;;;24.90;26.70;;;19.59;nan;101302.59;5030919;28;20658;-66
2022/03/06 10:31:55;;;;;;;6.90;6.07;;;22.10;28.00;;;18.36;nan;101297.78;5035902;28;20684;-66
2022/03/06 10:34:38;;;;;;;8.20;5.67;;;20.30;28.80;;;16.97;nan;101300.88;5053497;28;20700;-66
2022/03/06 10:37:06;;;;;;;8.40;6.03;;;18.60;30.00;;;15.86;nan;101294.78;5054108;28;21187;-66
2022/03/06 10:39:46;;;;;;;10.20;8.20;;;18.10;30.00;;;14.73;nan;101299.66;5036744;28;20627;-65